sensor_id;sensor_type;location;lat;lon;timestamp;P1;durP1;ratioP1;P2;durP2;ratioP2
71298;SDS011;59083;47.974;21.722;2023-04-29T00:02:17;22.97;;;10.70;;
71298;SDS011;59083;47.974;21.722;2023-04-29T00:05:18;19.48;;;9.80;;
71298;SDS011;59083;47.974;21.722;2023-04-29T00:08:19;17.75;;;8.93;;
71298;SDS011;59083;47.974;21.722;2023-04-29T00:11:21;17.67;;;9.15;;
71298;SDS011;59083;47.974;21.722;2023-04-29T00:14:22;18.25;;;10.00;;
71298;SDS011;59083;47.974;21.722;2023-04-29T00:17:23;17.90;;;9.27;;
71298;SDS011;59083;47.974;21.722;2023-04-29T00:20:24;18.90;;;9.50;;
71298;SDS011;59083;47.974;21.722;2023-04-29T00:23:25;23.30;;;9.98;;
71298;SDS011;59083;47.974;21.722;2023-04-29T00:26:26;17.65;;;9.93;;
71298;SDS011;59083;47.974;21.722;2023-04-29T00:29:28;18.00;;;9.88;;
71298;SDS011;59083;47.974;21.722;2023-04-29T00:32:29;17.33;;;9.47;;
71298;SDS011;59083;47.974;21.722;2023-04-29T00:35:31;18.98;;;10.00;;
71298;SDS011;59083;47.974;21.722;2023-04-29T00:38:32;17.10;;;9.60;;
71298;SDS011;59083;47.974;21.722;2023-04-29T00:41:34;19.05;;;9.82;;
71298;SDS011;59083;47.974;21.722;2023-04-29T00:44:35;18.75;;;8.90;;
71298;SDS011;59083;47.974;21.722;2023-04-29T00:47:37;18.93;;;9.00;;
71298;SDS011;59083;47.974;21.722;2023-04-29T00:50:38;14.57;;;8.65;;
71298;SDS011;59083;47.974;21.722;2023-04-29T00:53:39;18.65;;;9.50;;
71298;SDS011;59083;47.974;21.722;2023-04-29T00:56:41;20.70;;;8.38;;
71298;SDS011;59083;47.974;21.722;2023-04-29T00:59:45;16.30;;;8.65;;
71298;SDS011;59083;47.974;21.722;2023-04-29T01:02:47;17.83;;;8.83;;
71298;SDS011;59083;47.974;21.722;2023-04-29T01:05:52;16.20;;;7.78;;
71298;SDS011;59083;47.974;21.722;2023-04-29T01:15:56;14.43;;;7.75;;
71298;SDS011;59083;47.974;21.722;2023-04-29T01:19:10;15.10;;;8.17;;
71298;SDS011;59083;47.974;21.722;2023-04-29T01:22:32;16.85;;;8.48;;
71298;SDS011;59083;47.974;21.722;2023-04-29T01:25:33;17.62;;;8.95;;
71298;SDS011;59083;47.974;21.722;2023-04-29T01:38:25;17.12;;;9.90;;
71298;SDS011;59083;47.974;21.722;2023-04-29T01:44:37;19.67;;;10.63;;
71298;SDS011;59083;47.974;21.722;2023-04-29T01:47:41;20.73;;;10.93;;
71298;SDS011;59083;47.974;21.722;2023-04-29T01:50:44;24.37;;;11.03;;
71298;SDS011;59083;47.974;21.722;2023-04-29T01:53:46;17.70;;;10.75;;
71298;SDS011;59083;47.974;21.722;2023-04-29T01:56:47;21.55;;;10.93;;
71298;SDS011;59083;47.974;21.722;2023-04-29T01:59:49;20.50;;;10.68;;
71298;SDS011;59083;47.974;21.722;2023-04-29T02:02:50;21.62;;;11.18;;
71298;SDS011;59083;47.974;21.722;2023-04-29T02:05:52;20.80;;;11.40;;
71298;SDS011;59083;47.974;21.722;2023-04-29T02:08:53;19.50;;;10.68;;
71298;SDS011;59083;47.974;21.722;2023-04-29T02:11:55;21.58;;;10.73;;
71298;SDS011;59083;47.974;21.722;2023-04-29T02:14:56;19.40;;;10.27;;
71298;SDS011;59083;47.974;21.722;2023-04-29T02:17:58;19.45;;;10.80;;
71298;SDS011;59083;47.974;21.722;2023-04-29T02:21:00;17.80;;;10.03;;
71298;SDS011;59083;47.974;21.722;2023-04-29T02:24:02;18.98;;;10.57;;
71298;SDS011;59083;47.974;21.722;2023-04-29T02:27:03;20.62;;;10.50;;
71298;SDS011;59083;47.974;21.722;2023-04-29T02:30:06;17.75;;;10.35;;
71298;SDS011;59083;47.974;21.722;2023-04-29T02:33:08;16.55;;;10.38;;
71298;SDS011;59083;47.974;21.722;2023-04-29T02:36:09;19.70;;;10.27;;
71298;SDS011;59083;47.974;21.722;2023-04-29T02:39:10;19.80;;;10.18;;
71298;SDS011;59083;47.974;21.722;2023-04-29T02:42:11;19.10;;;10.02;;
71298;SDS011;59083;47.974;21.722;2023-04-29T02:45:13;22.13;;;10.80;;
71298;SDS011;59083;47.974;21.722;2023-04-29T02:48:14;18.65;;;10.85;;
71298;SDS011;59083;47.974;21.722;2023-04-29T02:51:16;17.17;;;9.93;;
71298;SDS011;59083;47.974;21.722;2023-04-29T02:54:17;19.87;;;10.18;;
71298;SDS011;59083;47.974;21.722;2023-04-29T02:57:19;21.40;;;10.80;;
71298;SDS011;59083;47.974;21.722;2023-04-29T03:00:21;20.05;;;9.73;;
71298;SDS011;59083;47.974;21.722;2023-04-29T03:03:22;19.37;;;10.02;;
71298;SDS011;59083;47.974;21.722;2023-04-29T03:06:23;18.70;;;9.80;;
71298;SDS011;59083;47.974;21.722;2023-04-29T03:09:24;18.87;;;10.27;;
71298;SDS011;59083;47.974;21.722;2023-04-29T03:12:26;18.75;;;9.82;;
71298;SDS011;59083;47.974;21.722;2023-04-29T03:15:27;20.45;;;9.60;;
71298;SDS011;59083;47.974;21.722;2023-04-29T03:18:29;16.45;;;9.38;;
71298;SDS011;59083;47.974;21.722;2023-04-29T03:21:30;17.80;;;9.70;;
71298;SDS011;59083;47.974;21.722;2023-04-29T03:24:33;18.23;;;9.25;;
71298;SDS011;59083;47.974;21.722;2023-04-29T03:27:34;17.52;;;9.57;;
71298;SDS011;59083;47.974;21.722;2023-04-29T03:30:35;20.35;;;9.88;;
71298;SDS011;59083;47.974;21.722;2023-04-29T03:33:36;14.93;;;9.10;;
71298;SDS011;59083;47.974;21.722;2023-04-29T03:36:38;15.83;;;8.97;;
71298;SDS011;59083;47.974;21.722;2023-04-29T03:39:40;20.42;;;10.00;;
71298;SDS011;59083;47.974;21.722;2023-04-29T03:42:41;17.73;;;10.07;;
71298;SDS011;59083;47.974;21.722;2023-04-29T03:45:42;18.40;;;10.23;;
71298;SDS011;59083;47.974;21.722;2023-04-29T03:48:44;21.85;;;9.65;;
71298;SDS011;59083;47.974;21.722;2023-04-29T03:51:45;15.40;;;9.50;;
71298;SDS011;59083;47.974;21.722;2023-04-29T03:54:47;20.95;;;10.05;;
71298;SDS011;59083;47.974;21.722;2023-04-29T03:57:48;19.08;;;9.90;;
71298;SDS011;59083;47.974;21.722;2023-04-29T04:00:50;15.60;;;8.73;;
71298;SDS011;59083;47.974;21.722;2023-04-29T04:03:52;19.35;;;9.65;;
71298;SDS011;59083;47.974;21.722;2023-04-29T04:06:53;18.70;;;9.73;;
71298;SDS011;59083;47.974;21.722;2023-04-29T04:09:55;17.42;;;9.50;;
71298;SDS011;59083;47.974;21.722;2023-04-29T04:12:56;17.45;;;9.00;;
71298;SDS011;59083;47.974;21.722;2023-04-29T04:15:58;16.00;;;9.15;;
71298;SDS011;59083;47.974;21.722;2023-04-29T04:18:59;15.57;;;9.18;;
71298;SDS011;59083;47.974;21.722;2023-04-29T04:22:02;17.73;;;8.47;;
71298;SDS011;59083;47.974;21.722;2023-04-29T04:25:04;19.15;;;8.80;;
71298;SDS011;59083;47.974;21.722;2023-04-29T04:28:06;14.13;;;8.80;;
71298;SDS011;59083;47.974;21.722;2023-04-29T04:31:08;19.50;;;9.25;;
71298;SDS011;59083;47.974;21.722;2023-04-29T04:34:09;15.13;;;9.30;;
71298;SDS011;59083;47.974;21.722;2023-04-29T04:37:11;14.60;;;8.30;;
71298;SDS011;59083;47.974;21.722;2023-04-29T04:40:12;16.35;;;8.98;;
71298;SDS011;59083;47.974;21.722;2023-04-29T04:43:14;16.15;;;9.20;;
71298;SDS011;59083;47.974;21.722;2023-04-29T04:46:16;16.05;;;8.73;;
71298;SDS011;59083;47.974;21.722;2023-04-29T04:49:18;17.10;;;8.43;;
71298;SDS011;59083;47.974;21.722;2023-04-29T04:52:20;14.67;;;8.50;;
71298;SDS011;59083;47.974;21.722;2023-04-29T04:55:22;15.93;;;8.18;;
71298;SDS011;59083;47.974;21.722;2023-04-29T04:58:24;17.58;;;8.90;;
71298;SDS011;59083;47.974;21.722;2023-04-29T05:01:27;17.70;;;9.05;;
71298;SDS011;59083;47.974;21.722;2023-04-29T05:04:28;16.75;;;9.05;;
71298;SDS011;59083;47.974;21.722;2023-04-29T05:07:30;18.93;;;8.80;;
71298;SDS011;59083;47.974;21.722;2023-04-29T05:10:35;15.00;;;9.05;;
71298;SDS011;59083;47.974;21.722;2023-04-29T05:13:36;17.08;;;8.80;;
71298;SDS011;59083;47.974;21.722;2023-04-29T05:16:38;20.88;;;9.73;;
71298;SDS011;59083;47.974;21.722;2023-04-29T05:19:39;18.00;;;11.18;;
71298;SDS011;59083;47.974;21.722;2023-04-29T05:22:41;25.10;;;14.73;;
71298;SDS011;59083;47.974;21.722;2023-04-29T05:25:42;22.77;;;13.98;;
71298;SDS011;59083;47.974;21.722;2023-04-29T05:28:43;28.40;;;9.88;;
71298;SDS011;59083;47.974;21.722;2023-04-29T05:31:44;17.77;;;9.35;;
71298;SDS011;59083;47.974;21.722;2023-04-29T05:34:46;17.23;;;9.32;;
71298;SDS011;59083;47.974;21.722;2023-04-29T05:37:47;22.17;;;9.30;;
71298;SDS011;59083;47.974;21.722;2023-04-29T05:40:49;16.00;;;9.50;;
71298;SDS011;59083;47.974;21.722;2023-04-29T05:43:51;16.08;;;9.07;;
71298;SDS011;59083;47.974;21.722;2023-04-29T05:46:52;19.33;;;9.40;;
71298;SDS011;59083;47.974;21.722;2023-04-29T05:49:53;16.35;;;9.25;;
71298;SDS011;59083;47.974;21.722;2023-04-29T05:52:55;17.27;;;9.73;;
71298;SDS011;59083;47.974;21.722;2023-04-29T05:55:57;17.95;;;9.43;;
71298;SDS011;59083;47.974;21.722;2023-04-29T05:58:59;16.73;;;9.85;;
71298;SDS011;59083;47.974;21.722;2023-04-29T06:02:00;17.45;;;9.15;;
71298;SDS011;59083;47.974;21.722;2023-04-29T06:05:01;19.70;;;9.52;;
71298;SDS011;59083;47.974;21.722;2023-04-29T06:08:04;18.10;;;10.07;;
71298;SDS011;59083;47.974;21.722;2023-04-29T06:11:06;19.58;;;9.50;;
71298;SDS011;59083;47.974;21.722;2023-04-29T06:14:07;20.42;;;9.07;;
71298;SDS011;59083;47.974;21.722;2023-04-29T06:17:09;15.80;;;9.10;;
71298;SDS011;59083;47.974;21.722;2023-04-29T06:20:11;20.33;;;9.82;;
71298;SDS011;59083;47.974;21.722;2023-04-29T06:23:13;17.80;;;8.47;;
71298;SDS011;59083;47.974;21.722;2023-04-29T06:26:14;17.12;;;9.52;;
71298;SDS011;59083;47.974;21.722;2023-04-29T06:29:16;17.80;;;9.00;;
71298;SDS011;59083;47.974;21.722;2023-04-29T06:32:17;15.20;;;8.65;;
71298;SDS011;59083;47.974;21.722;2023-04-29T06:35:20;15.88;;;8.57;;
71298;SDS011;59083;47.974;21.722;2023-04-29T06:38:22;14.40;;;8.93;;
71298;SDS011;59083;47.974;21.722;2023-04-29T06:41:24;18.65;;;9.07;;
71298;SDS011;59083;47.974;21.722;2023-04-29T06:44:27;15.02;;;8.82;;
71298;SDS011;59083;47.974;21.722;2023-04-29T06:47:29;16.87;;;8.10;;
71298;SDS011;59083;47.974;21.722;2023-04-29T06:50:31;16.52;;;9.15;;
71298;SDS011;59083;47.974;21.722;2023-04-29T06:53:33;13.93;;;8.23;;
71298;SDS011;59083;47.974;21.722;2023-04-29T06:56:34;13.32;;;8.02;;
71298;SDS011;59083;47.974;21.722;2023-04-29T06:59:36;15.32;;;8.30;;
71298;SDS011;59083;47.974;21.722;2023-04-29T07:02:38;14.98;;;8.27;;
71298;SDS011;59083;47.974;21.722;2023-04-29T07:05:39;12.85;;;7.68;;
71298;SDS011;59083;47.974;21.722;2023-04-29T07:08:42;15.50;;;7.67;;
71298;SDS011;59083;47.974;21.722;2023-04-29T07:11:43;15.50;;;8.23;;
71298;SDS011;59083;47.974;21.722;2023-04-29T07:14:44;14.95;;;8.00;;
71298;SDS011;59083;47.974;21.722;2023-04-29T07:17:46;12.77;;;7.20;;
71298;SDS011;59083;47.974;21.722;2023-04-29T07:20:48;14.55;;;7.57;;
71298;SDS011;59083;47.974;21.722;2023-04-29T07:23:51;13.40;;;7.33;;
71298;SDS011;59083;47.974;21.722;2023-04-29T07:26:52;12.63;;;6.82;;
71298;SDS011;59083;47.974;21.722;2023-04-29T07:29:53;15.27;;;7.50;;
71298;SDS011;59083;47.974;21.722;2023-04-29T07:32:55;12.65;;;7.07;;
71298;SDS011;59083;47.974;21.722;2023-04-29T07:35:56;10.85;;;6.57;;
71298;SDS011;59083;47.974;21.722;2023-04-29T07:38:57;12.40;;;6.80;;
71298;SDS011;59083;47.974;21.722;2023-04-29T07:41:59;11.60;;;6.15;;
71298;SDS011;59083;47.974;21.722;2023-04-29T07:45:02;9.88;;;5.95;;
71298;SDS011;59083;47.974;21.722;2023-04-29T07:48:04;12.07;;;5.78;;
71298;SDS011;59083;47.974;21.722;2023-04-29T07:51:06;10.50;;;5.00;;
71298;SDS011;59083;47.974;21.722;2023-04-29T07:54:13;9.67;;;5.47;;
71298;SDS011;59083;47.974;21.722;2023-04-29T07:57:16;14.48;;;5.97;;
71298;SDS011;59083;47.974;21.722;2023-04-29T08:00:17;10.27;;;5.90;;
71298;SDS011;59083;47.974;21.722;2023-04-29T08:03:21;12.88;;;5.37;;
71298;SDS011;59083;47.974;21.722;2023-04-29T08:06:22;11.05;;;5.07;;
71298;SDS011;59083;47.974;21.722;2023-04-29T08:09:23;11.13;;;5.20;;
71298;SDS011;59083;47.974;21.722;2023-04-29T08:12:24;9.65;;;4.70;;
71298;SDS011;59083;47.974;21.722;2023-04-29T08:15:26;9.57;;;5.00;;
71298;SDS011;59083;47.974;21.722;2023-04-29T08:18:27;9.43;;;4.75;;
71298;SDS011;59083;47.974;21.722;2023-04-29T08:21:29;8.95;;;4.57;;
71298;SDS011;59083;47.974;21.722;2023-04-29T08:24:31;10.20;;;4.90;;
71298;SDS011;59083;47.974;21.722;2023-04-29T08:27:34;9.23;;;4.80;;
71298;SDS011;59083;47.974;21.722;2023-04-29T08:30:36;9.07;;;4.30;;
71298;SDS011;59083;47.974;21.722;2023-04-29T08:33:41;8.82;;;4.85;;
71298;SDS011;59083;47.974;21.722;2023-04-29T08:36:42;24.77;;;12.02;;
71298;SDS011;59083;47.974;21.722;2023-04-29T08:39:43;8.73;;;4.83;;
71298;SDS011;59083;47.974;21.722;2023-04-29T08:42:46;11.15;;;5.22;;
71298;SDS011;59083;47.974;21.722;2023-04-29T08:45:49;11.30;;;4.87;;
71298;SDS011;59083;47.974;21.722;2023-04-29T08:48:50;10.07;;;4.62;;
71298;SDS011;59083;47.974;21.722;2023-04-29T08:51:53;9.68;;;4.95;;
71298;SDS011;59083;47.974;21.722;2023-04-29T08:54:54;9.33;;;5.00;;
71298;SDS011;59083;47.974;21.722;2023-04-29T08:57:56;14.18;;;5.18;;
71298;SDS011;59083;47.974;21.722;2023-04-29T09:00:57;10.70;;;4.68;;
71298;SDS011;59083;47.974;21.722;2023-04-29T09:07:21;15.20;;;4.80;;
71298;SDS011;59083;47.974;21.722;2023-04-29T09:10:23;8.33;;;4.60;;
71298;SDS011;59083;47.974;21.722;2023-04-29T09:13:26;11.00;;;5.00;;
71298;SDS011;59083;47.974;21.722;2023-04-29T09:16:29;8.75;;;4.18;;
71298;SDS011;59083;47.974;21.722;2023-04-29T09:19:34;10.60;;;4.80;;
71298;SDS011;59083;47.974;21.722;2023-04-29T09:22:49;9.05;;;4.50;;
71298;SDS011;59083;47.974;21.722;2023-04-29T09:25:56;9.57;;;5.00;;
71298;SDS011;59083;47.974;21.722;2023-04-29T09:29:07;10.02;;;4.57;;
71298;SDS011;59083;47.974;21.722;2023-04-29T09:32:18;9.93;;;4.50;;
71298;SDS011;59083;47.974;21.722;2023-04-29T09:35:21;8.18;;;4.32;;
71298;SDS011;59083;47.974;21.722;2023-04-29T09:38:27;7.37;;;3.67;;
71298;SDS011;59083;47.974;21.722;2023-04-29T09:41:28;8.97;;;4.63;;
71298;SDS011;59083;47.974;21.722;2023-04-29T09:44:30;7.65;;;4.10;;
71298;SDS011;59083;47.974;21.722;2023-04-29T09:47:35;11.10;;;4.75;;
71298;SDS011;59083;47.974;21.722;2023-04-29T09:50:37;7.03;;;4.28;;
71298;SDS011;59083;47.974;21.722;2023-04-29T09:53:40;10.48;;;4.55;;
71298;SDS011;59083;47.974;21.722;2023-04-29T09:56:48;8.20;;;4.23;;
71298;SDS011;59083;47.974;21.722;2023-04-29T09:59:53;9.48;;;4.65;;
71298;SDS011;59083;47.974;21.722;2023-04-29T10:02:54;8.95;;;4.50;;
71298;SDS011;59083;47.974;21.722;2023-04-29T10:05:59;13.40;;;5.00;;
71298;SDS011;59083;47.974;21.722;2023-04-29T10:09:01;9.88;;;4.70;;
71298;SDS011;59083;47.974;21.722;2023-04-29T10:12:03;9.83;;;5.03;;
71298;SDS011;59083;47.974;21.722;2023-04-29T10:15:20;9.10;;;4.35;;
71298;SDS011;59083;47.974;21.722;2023-04-29T10:18:37;8.73;;;4.78;;
71298;SDS011;59083;47.974;21.722;2023-04-29T10:21:41;9.55;;;4.57;;
71298;SDS011;59083;47.974;21.722;2023-04-29T10:24:42;7.95;;;4.50;;
71298;SDS011;59083;47.974;21.722;2023-04-29T10:27:44;10.83;;;4.53;;
71298;SDS011;59083;47.974;21.722;2023-04-29T10:30:49;11.68;;;4.90;;
71298;SDS011;59083;47.974;21.722;2023-04-29T10:33:57;8.95;;;4.32;;
71298;SDS011;59083;47.974;21.722;2023-04-29T10:36:59;9.25;;;4.65;;
71298;SDS011;59083;47.974;21.722;2023-04-29T10:40:04;9.68;;;4.03;;
71298;SDS011;59083;47.974;21.722;2023-04-29T10:43:12;8.87;;;4.20;;
71298;SDS011;59083;47.974;21.722;2023-04-29T10:49:18;9.10;;;3.72;;
71298;SDS011;59083;47.974;21.722;2023-04-29T10:52:21;9.90;;;4.43;;
71298;SDS011;59083;47.974;21.722;2023-04-29T10:55:23;7.32;;;4.15;;
71298;SDS011;59083;47.974;21.722;2023-04-29T10:58:43;9.27;;;4.10;;
71298;SDS011;59083;47.974;21.722;2023-04-29T11:01:49;11.15;;;5.90;;
71298;SDS011;59083;47.974;21.722;2023-04-29T11:05:07;9.57;;;5.40;;
71298;SDS011;59083;47.974;21.722;2023-04-29T11:08:10;9.90;;;4.90;;
71298;SDS011;59083;47.974;21.722;2023-04-29T11:11:12;10.10;;;5.60;;
71298;SDS011;59083;47.974;21.722;2023-04-29T11:14:23;10.10;;;5.27;;
71298;SDS011;59083;47.974;21.722;2023-04-29T11:17:25;11.75;;;5.65;;
71298;SDS011;59083;47.974;21.722;2023-04-29T11:20:26;12.07;;;5.10;;
71298;SDS011;59083;47.974;21.722;2023-04-29T11:23:27;10.68;;;5.75;;
71298;SDS011;59083;47.974;21.722;2023-04-29T11:26:28;11.02;;;4.82;;
71298;SDS011;59083;47.974;21.722;2023-04-29T11:29:30;10.33;;;5.27;;
71298;SDS011;59083;47.974;21.722;2023-04-29T11:32:34;9.75;;;5.05;;
71298;SDS011;59083;47.974;21.722;2023-04-29T11:35:42;9.57;;;5.90;;
71298;SDS011;59083;47.974;21.722;2023-04-29T11:38:43;11.32;;;5.60;;
71298;SDS011;59083;47.974;21.722;2023-04-29T11:41:45;13.55;;;6.30;;
71298;SDS011;59083;47.974;21.722;2023-04-29T11:44:46;9.43;;;5.40;;
71298;SDS011;59083;47.974;21.722;2023-04-29T11:47:50;12.35;;;5.43;;
71298;SDS011;59083;47.974;21.722;2023-04-29T11:50:52;11.48;;;5.10;;
71298;SDS011;59083;47.974;21.722;2023-04-29T11:53:57;12.50;;;5.10;;
71298;SDS011;59083;47.974;21.722;2023-04-29T11:56:59;9.80;;;5.37;;
71298;SDS011;59083;47.974;21.722;2023-04-29T12:00:03;12.10;;;5.87;;
71298;SDS011;59083;47.974;21.722;2023-04-29T12:03:14;14.50;;;7.22;;
71298;SDS011;59083;47.974;21.722;2023-04-29T12:06:16;10.80;;;5.50;;
71298;SDS011;59083;47.974;21.722;2023-04-29T12:09:17;9.88;;;5.93;;
71298;SDS011;59083;47.974;21.722;2023-04-29T12:12:19;12.40;;;5.82;;
71298;SDS011;59083;47.974;21.722;2023-04-29T12:15:21;12.00;;;6.50;;
71298;SDS011;59083;47.974;21.722;2023-04-29T12:18:22;15.20;;;7.28;;
71298;SDS011;59083;47.974;21.722;2023-04-29T12:21:24;12.98;;;5.70;;
71298;SDS011;59083;47.974;21.722;2023-04-29T12:24:27;11.10;;;5.40;;
71298;SDS011;59083;47.974;21.722;2023-04-29T12:27:28;11.00;;;5.82;;
71298;SDS011;59083;47.974;21.722;2023-04-29T12:30:31;11.37;;;4.90;;
71298;SDS011;59083;47.974;21.722;2023-04-29T12:33:34;10.27;;;5.43;;
71298;SDS011;59083;47.974;21.722;2023-04-29T12:36:35;10.07;;;5.30;;
71298;SDS011;59083;47.974;21.722;2023-04-29T12:39:37;11.93;;;5.60;;
71298;SDS011;59083;47.974;21.722;2023-04-29T12:42:39;9.80;;;4.97;;
71298;SDS011;59083;47.974;21.722;2023-04-29T12:45:40;10.77;;;5.40;;
71298;SDS011;59083;47.974;21.722;2023-04-29T12:48:41;9.35;;;5.70;;
71298;SDS011;59083;47.974;21.722;2023-04-29T12:51:43;10.18;;;5.45;;
71298;SDS011;59083;47.974;21.722;2023-04-29T12:54:45;9.50;;;5.07;;
71298;SDS011;59083;47.974;21.722;2023-04-29T12:57:46;15.02;;;5.50;;
71298;SDS011;59083;47.974;21.722;2023-04-29T13:00:47;9.70;;;4.70;;
71298;SDS011;59083;47.974;21.722;2023-04-29T13:03:49;10.32;;;4.78;;
71298;SDS011;59083;47.974;21.722;2023-04-29T13:06:51;13.18;;;5.20;;
71298;SDS011;59083;47.974;21.722;2023-04-29T13:09:59;9.57;;;5.10;;
71298;SDS011;59083;47.974;21.722;2023-04-29T13:13:01;9.48;;;4.78;;
71298;SDS011;59083;47.974;21.722;2023-04-29T13:16:03;10.30;;;5.07;;
71298;SDS011;59083;47.974;21.722;2023-04-29T13:19:05;9.73;;;4.80;;
71298;SDS011;59083;47.974;21.722;2023-04-29T13:22:06;11.15;;;4.97;;
71298;SDS011;59083;47.974;21.722;2023-04-29T13:25:08;10.45;;;5.10;;
71298;SDS011;59083;47.974;21.722;2023-04-29T13:28:09;9.45;;;5.07;;
71298;SDS011;59083;47.974;21.722;2023-04-29T13:31:11;10.13;;;4.90;;
71298;SDS011;59083;47.974;21.722;2023-04-29T13:34:13;11.48;;;5.10;;
71298;SDS011;59083;47.974;21.722;2023-04-29T13:37:14;10.07;;;4.80;;
71298;SDS011;59083;47.974;21.722;2023-04-29T13:40:15;8.60;;;5.07;;
71298;SDS011;59083;47.974;21.722;2023-04-29T13:43:16;12.32;;;5.10;;
71298;SDS011;59083;47.974;21.722;2023-04-29T13:46:17;11.20;;;4.90;;
71298;SDS011;59083;47.974;21.722;2023-04-29T13:49:18;10.40;;;5.00;;
71298;SDS011;59083;47.974;21.722;2023-04-29T13:52:20;10.35;;;4.85;;
71298;SDS011;59083;47.974;21.722;2023-04-29T13:55:21;9.90;;;4.90;;
71298;SDS011;59083;47.974;21.722;2023-04-29T13:58:22;9.88;;;5.10;;
71298;SDS011;59083;47.974;21.722;2023-04-29T14:01:23;11.50;;;5.20;;
71298;SDS011;59083;47.974;21.722;2023-04-29T14:04:25;9.32;;;4.30;;
71298;SDS011;59083;47.974;21.722;2023-04-29T14:07:26;9.65;;;4.60;;
71298;SDS011;59083;47.974;21.722;2023-04-29T14:10:28;12.43;;;5.25;;
71298;SDS011;59083;47.974;21.722;2023-04-29T14:13:29;9.63;;;4.90;;
71298;SDS011;59083;47.974;21.722;2023-04-29T14:16:30;9.47;;;4.60;;
71298;SDS011;59083;47.974;21.722;2023-04-29T14:19:31;10.35;;;4.78;;
71298;SDS011;59083;47.974;21.722;2023-04-29T14:22:33;12.50;;;5.22;;
71298;SDS011;59083;47.974;21.722;2023-04-29T14:25:34;8.77;;;5.12;;
71298;SDS011;59083;47.974;21.722;2023-04-29T14:28:35;8.93;;;4.75;;
71298;SDS011;59083;47.974;21.722;2023-04-29T14:31:36;12.20;;;5.27;;
71298;SDS011;59083;47.974;21.722;2023-04-29T14:34:38;9.35;;;4.47;;
71298;SDS011;59083;47.974;21.722;2023-04-29T14:37:39;10.50;;;4.72;;
71298;SDS011;59083;47.974;21.722;2023-04-29T14:40:40;7.68;;;4.45;;
71298;SDS011;59083;47.974;21.722;2023-04-29T14:43:41;8.95;;;4.28;;
71298;SDS011;59083;47.974;21.722;2023-04-29T14:46:43;8.30;;;4.50;;
71298;SDS011;59083;47.974;21.722;2023-04-29T14:49:44;11.70;;;4.30;;
71298;SDS011;59083;47.974;21.722;2023-04-29T14:52:45;8.82;;;4.40;;
71298;SDS011;59083;47.974;21.722;2023-04-29T14:55:50;11.38;;;4.28;;
71298;SDS011;59083;47.974;21.722;2023-04-29T14:58:51;8.57;;;4.47;;
71298;SDS011;59083;47.974;21.722;2023-04-29T15:01:52;8.40;;;4.47;;
71298;SDS011;59083;47.974;21.722;2023-04-29T15:04:53;8.63;;;4.28;;
71298;SDS011;59083;47.974;21.722;2023-04-29T15:07:55;8.85;;;4.15;;
71298;SDS011;59083;47.974;21.722;2023-04-29T15:10:58;9.60;;;4.10;;
71298;SDS011;59083;47.974;21.722;2023-04-29T15:13:59;7.30;;;4.15;;
71298;SDS011;59083;47.974;21.722;2023-04-29T15:17:00;10.43;;;4.90;;
71298;SDS011;59083;47.974;21.722;2023-04-29T15:20:01;10.98;;;4.30;;
71298;SDS011;59083;47.974;21.722;2023-04-29T15:23:03;9.48;;;4.30;;
71298;SDS011;59083;47.974;21.722;2023-04-29T15:26:05;8.07;;;4.40;;
71298;SDS011;59083;47.974;21.722;2023-04-29T15:29:07;9.85;;;4.40;;
71298;SDS011;59083;47.974;21.722;2023-04-29T15:32:08;11.47;;;4.07;;
71298;SDS011;59083;47.974;21.722;2023-04-29T15:35:10;9.77;;;4.18;;
71298;SDS011;59083;47.974;21.722;2023-04-29T15:38:12;9.60;;;4.30;;
71298;SDS011;59083;47.974;21.722;2023-04-29T15:41:13;9.85;;;3.85;;
71298;SDS011;59083;47.974;21.722;2023-04-29T15:44:14;8.18;;;4.47;;
71298;SDS011;59083;47.974;21.722;2023-04-29T15:47:16;8.73;;;4.03;;
71298;SDS011;59083;47.974;21.722;2023-04-29T15:50:17;9.52;;;4.32;;
71298;SDS011;59083;47.974;21.722;2023-04-29T15:53:18;8.60;;;4.03;;
71298;SDS011;59083;47.974;21.722;2023-04-29T15:56:19;8.18;;;4.22;;
71298;SDS011;59083;47.974;21.722;2023-04-29T15:59:20;8.25;;;4.30;;
71298;SDS011;59083;47.974;21.722;2023-04-29T16:02:22;8.57;;;4.00;;
71298;SDS011;59083;47.974;21.722;2023-04-29T16:05:24;7.50;;;3.72;;
71298;SDS011;59083;47.974;21.722;2023-04-29T16:08:25;10.88;;;4.20;;
71298;SDS011;59083;47.974;21.722;2023-04-29T16:11:27;9.43;;;4.28;;
71298;SDS011;59083;47.974;21.722;2023-04-29T16:14:28;8.68;;;4.10;;
71298;SDS011;59083;47.974;21.722;2023-04-29T16:17:30;7.50;;;4.07;;
71298;SDS011;59083;47.974;21.722;2023-04-29T16:20:32;7.45;;;4.28;;
71298;SDS011;59083;47.974;21.722;2023-04-29T16:23:33;9.70;;;4.00;;
71298;SDS011;59083;47.974;21.722;2023-04-29T16:26:34;8.73;;;3.90;;
71298;SDS011;59083;47.974;21.722;2023-04-29T16:29:36;9.07;;;4.30;;
71298;SDS011;59083;47.974;21.722;2023-04-29T16:32:37;7.37;;;4.30;;
71298;SDS011;59083;47.974;21.722;2023-04-29T16:35:41;9.85;;;4.07;;
71298;SDS011;59083;47.974;21.722;2023-04-29T16:38:42;8.13;;;4.20;;
71298;SDS011;59083;47.974;21.722;2023-04-29T16:41:43;8.50;;;4.40;;
71298;SDS011;59083;47.974;21.722;2023-04-29T16:44:44;9.30;;;4.25;;
71298;SDS011;59083;47.974;21.722;2023-04-29T16:47:46;8.33;;;4.23;;
71298;SDS011;59083;47.974;21.722;2023-04-29T16:50:47;10.15;;;4.53;;
71298;SDS011;59083;47.974;21.722;2023-04-29T16:53:49;9.90;;;4.45;;
71298;SDS011;59083;47.974;21.722;2023-04-29T16:56:50;9.10;;;4.62;;
71298;SDS011;59083;47.974;21.722;2023-04-29T16:59:51;9.02;;;4.70;;
71298;SDS011;59083;47.974;21.722;2023-04-29T17:02:53;9.13;;;4.60;;
71298;SDS011;59083;47.974;21.722;2023-04-29T17:05:58;10.48;;;5.03;;
71298;SDS011;59083;47.974;21.722;2023-04-29T17:08:59;9.55;;;4.97;;
71298;SDS011;59083;47.974;21.722;2023-04-29T17:12:00;10.65;;;5.05;;
71298;SDS011;59083;47.974;21.722;2023-04-29T17:15:03;13.50;;;5.75;;
71298;SDS011;59083;47.974;21.722;2023-04-29T17:18:05;10.90;;;5.20;;
71298;SDS011;59083;47.974;21.722;2023-04-29T17:21:06;9.57;;;5.40;;
71298;SDS011;59083;47.974;21.722;2023-04-29T17:24:08;10.23;;;5.35;;
71298;SDS011;59083;47.974;21.722;2023-04-29T17:27:09;15.50;;;6.15;;
71298;SDS011;59083;47.974;21.722;2023-04-29T17:30:11;14.07;;;6.22;;
71298;SDS011;59083;47.974;21.722;2023-04-29T17:33:12;12.43;;;6.37;;
71298;SDS011;59083;47.974;21.722;2023-04-29T17:36:14;11.68;;;6.28;;
71298;SDS011;59083;47.974;21.722;2023-04-29T17:39:15;13.18;;;6.35;;
71298;SDS011;59083;47.974;21.722;2023-04-29T17:42:17;13.45;;;7.32;;
71298;SDS011;59083;47.974;21.722;2023-04-29T17:45:19;12.82;;;6.68;;
71298;SDS011;59083;47.974;21.722;2023-04-29T17:48:20;23.13;;;7.30;;
71298;SDS011;59083;47.974;21.722;2023-04-29T17:51:22;11.65;;;6.35;;
71298;SDS011;59083;47.974;21.722;2023-04-29T17:54:23;13.73;;;6.65;;
71298;SDS011;59083;47.974;21.722;2023-04-29T17:57:25;13.80;;;6.47;;
71298;SDS011;59083;47.974;21.722;2023-04-29T18:00:28;12.43;;;5.97;;
71298;SDS011;59083;47.974;21.722;2023-04-29T18:03:30;11.57;;;5.80;;
71298;SDS011;59083;47.974;21.722;2023-04-29T18:06:31;12.00;;;6.28;;
71298;SDS011;59083;47.974;21.722;2023-04-29T18:09:32;13.35;;;6.65;;
71298;SDS011;59083;47.974;21.722;2023-04-29T18:12:34;14.43;;;6.72;;
71298;SDS011;59083;47.974;21.722;2023-04-29T18:15:35;14.73;;;7.40;;